Time;durP1;ratioP1;P1;durP2;ratioP2;P2;SDS_P1;SDS_P2;PMS_P1;PMS_P2;Temp;Humidity;BMP_temperature;BMP_pressure;BME280_temperature;BME280_humidity;BME280_pressure;Samples;Min_cycle;Max_cycle;Signal;HPM_P1;HPM_P2
2022/02/07 00:09:52;;;;;;;7.90;3.72;;;;;;;;;;19820996;30;20112;-57
2022/02/07 00:19:58;;;;;;;5.53;3.38;;;;;;;;;;19820165;29;20051;-57
2022/02/07 00:30:02;;;;;;;9.10;4.82;;;;;;;;;;19819645;30;20055;-57
2022/02/07 00:50:18;;;;;;;7.97;4.45;;;;;;;;;;19819110;30;20508;-59
2022/02/07 01:00:19;;;;;;;6.50;4.18;;;;;;;;;;19817861;30;20062;-57
2022/02/07 01:10:37;;;;;;;9.75;4.82;;;;;;;;;;19817098;29;20055;-63
2022/02/07 02:01:45;;;;;;;9.90;4.38;;;;;;;;;;19814425;30;20051;-58
2022/02/07 02:11:48;;;;;;;7.72;4.57;;;;;;;;;;19814297;30;20055;-57
2022/02/07 02:53:13;;;;;;;8.82;4.38;;;;;;;;;;19597820;30;20144;-57
2022/02/07 03:03:15;;;;;;;7.80;4.40;;;;;;;;;;19660466;30;20079;-57
2022/02/07 03:23:39;;;;;;;10.43;4.95;;;;;;;;;;19824476;30;20067;-57
2022/02/07 03:33:41;;;;;;;8.10;5.28;;;;;;;;;;19822948;29;20086;-57
2022/02/07 03:43:54;;;;;;;8.23;5.13;;;;;;;;;;19823230;30;20059;-58
2022/02/07 03:54:07;;;;;;;8.75;4.93;;;;;;;;;;19823131;30;20126;-56
2022/02/07 04:04:25;;;;;;;8.68;5.07;;;;;;;;;;19822328;30;20131;-56
2022/02/07 04:14:45;;;;;;;6.68;4.13;;;;;;;;;;19821117;30;20055;-57
2022/02/07 04:25:02;;;;;;;8.50;4.35;;;;;;;;;;19820330;29;20059;-58
2022/02/07 04:35:23;;;;;;;7.57;4.53;;;;;;;;;;19805979;30;20052;-56
2022/02/07 04:45:59;;;;;;;7.40;4.43;;;;;;;;;;19819445;29;20059;-57
2022/02/07 05:17:20;;;;;;;7.40;4.75;;;;;;;;;;19816977;29;20066;-57
2022/02/07 05:27:42;;;;;;;6.97;3.78;;;;;;;;;;19817715;30;20059;-58
2022/02/07 05:37:44;;;;;;;7.65;4.10;;;;;;;;;;19815615;30;20148;-57
2022/02/07 05:47:47;;;;;;;7.38;3.85;;;;;;;;;;19815768;30;20086;-58
2022/02/07 05:57:49;;;;;;;8.80;4.95;;;;;;;;;;19828835;29;20063;-58
2022/02/07 06:08:06;;;;;;;11.70;5.45;;;;;;;;;;19816172;30;20051;-57
2022/02/07 06:18:14;;;;;;;7.13;4.30;;;;;;;;;;19829477;29;20055;-57
2022/02/07 06:28:18;;;;;;;5.93;3.43;;;;;;;;;;19828651;30;20051;-55
2022/02/07 06:38:28;;;;;;;7.28;4.60;;;;;;;;;;19827846;30;20124;-57
2022/02/07 06:48:36;;;;;;;7.88;4.70;;;;;;;;;;19827020;30;20062;-57
2022/02/07 06:58:38;;;;;;;9.02;4.25;;;;;;;;;;19827466;30;20055;-56
2022/02/07 07:08:48;;;;;;;8.20;4.00;;;;;;;;;;19825703;29;20063;-57
2022/02/07 07:19:01;;;;;;;10.45;4.28;;;;;;;;;;19824740;29;20436;-57
2022/02/07 07:29:09;;;;;;;6.65;4.07;;;;;;;;;;19824272;30;20092;-57
2022/02/07 07:39:18;;;;;;;6.50;3.67;;;;;;;;;;19823682;30;20154;-57
2022/02/07 07:49:33;;;;;;;4.47;3.30;;;;;;;;;;19823008;30;20501;-57
2022/02/07 08:10:29;;;;;;;11.48;4.88;;;;;;;;;;19821149;30;20060;-57
2022/02/07 08:20:31;;;;;;;8.95;4.78;;;;;;;;;;19819561;29;20055;-57
2022/02/07 08:30:34;;;;;;;9.52;5.13;;;;;;;;;;19819638;30;20078;-56
2022/02/07 08:40:37;;;;;;;10.93;4.63;;;;;;;;;;19802583;30;20109;-57
2022/02/07 08:50:52;;;;;;;11.25;4.45;;;;;;;;;;19803932;30;20054;-57
2022/02/07 09:11:13;;;;;;;15.32;6.28;;;;;;;;;;19817598;30;20055;-59
2022/02/07 09:21:21;;;;;;;16.33;8.10;;;;;;;;;;19801153;29;20065;-59
2022/02/07 09:31:42;;;;;;;18.65;7.35;;;;;;;;;;19816561;29;20055;-58
2022/02/07 09:42:04;;;;;;;12.57;6.40;;;;;;;;;;19816644;30;20051;-58
2022/02/07 09:52:26;;;;;;;10.13;6.05;;;;;;;;;;19802090;30;20059;-57
2022/02/07 10:03:00;;;;;;;15.70;6.70;;;;;;;;;;19813698;30;20108;-57
2022/02/07 10:13:44;;;;;;;15.20;6.47;;;;;;;;;;19814181;30;20520;-58
2022/02/07 10:35:15;;;;;;;12.68;7.35;;;;;;;;;;19813751;29;20055;-58
2022/02/07 10:45:29;;;;;;;18.52;10.13;;;;;;;;;;19827878;30;20055;-58
2022/02/07 10:55:44;;;;;;;;;;;;;;;;;;19827593;30;20561;-59
2022/02/07 11:06:08;;;;;;;12.80;7.00;;;;;;;;;;19776785;30;20387;-58
2022/02/07 11:26:50;;;;;;;14.63;5.50;;;;;;;;;;19750054;30;20440;-69
2022/02/07 11:37:15;;;;;;;13.00;4.95;;;;;;;;;;19784187;30;20059;-61
2022/02/07 11:47:24;;;;;;;11.45;5.38;;;;;;;;;;19821883;29;20067;-58
2022/02/07 11:57:36;;;;;;;9.40;5.78;;;;;;;;;;19880182;29;20050;-57
2022/02/07 12:07:41;;;;;;;10.07;3.88;;;;;;;;;;19895999;29;20134;-56
2022/02/07 12:17:44;;;;;;;8.70;3.93;;;;;;;;;;19895517;29;20097;-57
2022/02/07 12:27:47;;;;;;;11.93;4.10;;;;;;;;;;19894622;29;20097;-57
2022/02/07 12:37:50;;;;;;;10.48;4.00;;;;;;;;;;19893694;29;20065;-56
2022/02/07 12:47:56;;;;;;;9.93;3.63;;;;;;;;;;19893246;29;20051;-56
2022/02/07 12:58:00;;;;;;;10.02;4.20;;;;;;;;;;19892044;29;20073;-58
2022/02/07 13:08:03;;;;;;;9.65;4.15;;;;;;;;;;19891760;29;20466;-62
2022/02/07 13:18:13;;;;;;;11.35;4.20;;;;;;;;;;19890582;29;20077;-61
2022/02/07 13:28:18;;;;;;;11.18;4.07;;;;;;;;;;19891028;29;20051;-63
2022/02/07 13:38:21;;;;;;;;;;;;;;;;;;19890566;29;20450;-63
2022/02/07 13:48:24;;;;;;;5.90;3.13;;;;;;;;;;19890224;29;19929;-63
2022/02/07 13:58:33;;;;;;;7.35;4.07;;;;;;;;;;19889269;29;20058;-62
2022/02/07 14:08:35;;;;;;;7.43;3.70;;;;;;;;;;19889766;29;20058;-56
2022/02/07 14:18:38;;;;;;;9.45;5.65;;;;;;;;;;19901019;29;20524;-57
2022/02/07 14:28:40;;;;;;;5.78;2.17;;;;;;;;;;19886524;29;20054;-57
2022/02/07 14:38:42;;;;;;;2.95;1.52;;;;;;;;;;19886605;29;20086;-58
2022/02/07 14:48:45;;;;;;;4.72;1.40;;;;;;;;;;19901486;29;20513;-57
2022/02/07 14:58:47;;;;;;;4.13;1.30;;;;;;;;;;19883983;29;20102;-56
2022/02/07 15:08:49;;;;;;;2.78;1.20;;;;;;;;;;19883782;29;20061;-57
2022/02/07 15:18:53;;;;;;;1.60;0.90;;;;;;;;;;19899245;29;20492;-60
2022/02/07 15:28:55;;;;;;;2.35;1.10;;;;;;;;;;19899506;29;20133;-63
2022/02/07 15:38:57;;;;;;;1.55;0.80;;;;;;;;;;19898469;29;20051;-63
2022/02/07 15:48:59;;;;;;;1.67;0.60;;;;;;;;;;19897489;29;20485;-60
2022/02/07 15:59:01;;;;;;;1.48;0.80;;;;;;;;;;19897286;29;20059;-61
2022/02/07 16:09:04;;;;;;;3.45;0.95;;;;;;;;;;19895868;29;20558;-60
2022/02/07 16:19:05;;;;;;;1.45;0.90;;;;;;;;;;19894621;29;20096;-68
2022/02/07 16:29:09;;;;;;;4.10;1.10;;;;;;;;;;19894902;29;20059;-57
2022/02/07 16:39:11;;;;;;;5.07;1.10;;;;;;;;;;19857360;29;20540;-60
2022/02/07 16:49:13;;;;;;;2.50;1.00;;;;;;;;;;19818121;30;20086;-60
2022/02/07 16:59:14;;;;;;;3.38;1.13;;;;;;;;;;19818102;30;20051;-60
2022/02/07 17:09:16;;;;;;;3.03;1.40;;;;;;;;;;19817127;30;20055;-59
2022/02/07 17:19:20;;;;;;;2.90;1.90;;;;;;;;;;19817374;29;20055;-60
2022/02/07 17:29:21;;;;;;;3.40;1.48;;;;;;;;;;19816138;30;20067;-59
2022/02/07 17:39:24;;;;;;;3.78;1.45;;;;;;;;;;19816359;30;20052;-61
2022/02/07 17:49:26;;;;;;;8.50;1.88;;;;;;;;;;19813915;30;20059;-63
2022/02/07 17:59:28;;;;;;;7.93;1.77;;;;;;;;;;19813738;30;20127;-58
2022/02/07 18:09:30;;;;;;;3.45;1.73;;;;;;;;;;19813168;30;20099;-62
2022/02/07 18:19:37;;;;;;;4.47;1.60;;;;;;;;;;19756464;30;20143;-66
2022/02/07 18:29:47;;;;;;;3.10;1.40;;;;;;;;;;19755612;30;20051;-59
2022/02/07 18:39:49;;;;;;;4.43;2.28;;;;;;;;;;19812640;30;20524;-57
2022/02/07 18:49:52;;;;;;;3.90;2.50;;;;;;;;;;19797008;30;20465;-61
2022/02/07 19:00:05;;;;;;;6.80;1.60;;;;;;;;;;19818006;29;20544;-60
2022/02/07 19:10:07;;;;;;;3.85;1.30;;;;;;;;;;19825069;30;20464;-56
2022/02/07 19:20:16;;;;;;;1.52;0.80;;;;;;;;;;19823091;29;20051;-57
2022/02/07 19:30:19;;;;;;;7.28;2.15;;;;;;;;;;19823422;30;20448;-56
2022/02/07 19:40:20;;;;;;;2.92;1.35;;;;;;;;;;19819656;30;20070;-62
2022/02/07 19:50:23;;;;;;;3.05;1.27;;;;;;;;;;19821019;30;20120;-60
2022/02/07 20:00:34;;;;;;;2.65;1.30;;;;;;;;;;19821782;30;20079;-59
2022/02/07 20:10:38;;;;;;;2.17;1.05;;;;;;;;;;19805596;29;20097;-64
2022/02/07 20:20:40;;;;;;;3.35;1.10;;;;;;;;;;19821061;29;20059;-65
2022/02/07 20:30:43;;;;;;;2.90;1.40;;;;;;;;;;19819975;30;20062;-63
2022/02/07 20:40:45;;;;;;;3.35;1.58;;;;;;;;;;19819888;30;20062;-61
2022/02/07 20:50:46;;;;;;;1.65;0.90;;;;;;;;;;19802563;30;20059;-61
2022/02/07 21:00:49;;;;;;;1.40;0.80;;;;;;;;;;19818769;30;20059;-60
2022/02/07 21:10:51;;;;;;;3.50;0.95;;;;;;;;;;19818056;30;20091;-61
2022/02/07 21:20:53;;;;;;;1.92;1.02;;;;;;;;;;19817302;29;20139;-69
2022/02/07 21:30:55;;;;;;;2.45;1.10;;;;;;;;;;19817375;30;20062;-65
2022/02/07 21:40:58;;;;;;;2.65;1.35;;;;;;;;;;19800694;30;20486;-64
2022/02/07 21:51:00;;;;;;;2.28;0.93;;;;;;;;;;19815898;30;20055;-66
2022/02/07 22:01:03;;;;;;;2.63;1.10;;;;;;;;;;19815782;30;20055;-66
2022/02/07 22:11:06;;;;;;;3.78;1.80;;;;;;;;;;19814922;30;20143;-60
2022/02/07 22:21:09;;;;;;;2.50;1.38;;;;;;;;;;19814553;29;20421;-63
2022/02/07 22:31:22;;;;;;;4.13;1.95;;;;;;;;;;19814805;29;20123;-66
2022/02/07 22:41:24;;;;;;;2.72;1.25;;;;;;;;;;19828296;30;20390;-60
2022/02/07 22:51:26;;;;;;;1.67;0.90;;;;;;;;;;19827045;30;20055;-61
2022/02/07 23:01:29;;;;;;;1.77;0.88;;;;;;;;;;19826402;30;20051;-66
2022/02/07 23:42:38;;;;;;;1.92;0.95;;;;;;;;;;19824561;29;20577;-60
